Time;durP1;ratioP1;P1;durP2;ratioP2;P2;SDS_P1;SDS_P2;PMS_P1;PMS_P2;Temp;Humidity;BMP_temperature;BMP_pressure;BME280_temperature;BME280_humidity;BME280_pressure;Samples;Min_cycle;Max_cycle;Signal;HPM_P1;HPM_P2
2023/01/15 00:00:04;;;;;;;;;;;;;;;8.38;71.18;96826.06;5013306;28;20016;-65
2023/01/15 00:02:33;;;;;;;;;;;;;;;8.39;71.36;96816.03;5013990;28;19929;-65
2023/01/15 00:05:05;;;;;;;;;;;;;;;8.54;71.05;96801.19;5012803;28;19925;-64
2023/01/15 00:07:34;;;;;;;;;;;;;;;8.54;70.01;96812.03;5013261;28;19925;-65
2023/01/15 00:10:04;;;;;;;;;;;;;;;8.51;70.05;96791.78;5013095;28;19932;-65
2023/01/15 00:12:32;;;;;;;;;;;;;;;8.52;70.12;96795.28;5013020;28;20326;-65
2023/01/15 00:15:00;;;;;;;;;;;;;;;8.45;71.18;96786.88;4994799;28;19926;-65
2023/01/15 00:17:28;;;;;;;;;;;;;;;8.49;70.42;96779.72;5013155;28;19960;-65
2023/01/15 00:19:56;;;;;;;;;;;;;;;8.47;70.81;96769.22;4995220;28;19979;-70
2023/01/15 00:22:24;;;;;;;;;;;;;;;8.48;70.45;96770.00;4995369;28;20022;-66
2023/01/15 00:27:45;;;;;;;;;;;;;;;8.48;71.24;96770.00;5003389;28;20436;-65
2023/01/15 00:30:16;;;;;;;;;;;;;;;8.58;70.07;96769.66;5013778;28;19954;-66
2023/01/15 00:32:44;;;;;;;;;;;;;;;8.53;70.28;96767.13;4993907;28;19926;-65
2023/01/15 00:35:12;;;;;;;;;;;;;;;8.60;70.08;96768.19;5009641;28;19940;-65
2023/01/15 00:37:41;;;;;;;;;;;;;;;8.56;70.75;96763.75;4995838;28;19940;-65
2023/01/15 00:40:11;;;;;;;;;;;;;;;8.59;70.61;96760.41;5011981;28;20306;-65
2023/01/15 00:42:39;;;;;;;;;;;;;;;8.73;69.87;96750.13;4992023;28;19944;-65
2023/01/15 00:45:09;;;;;;;;;;;;;;;8.68;69.83;96752.22;4990598;28;20405;-68
2023/01/15 00:47:37;;;;;;;;;;;;;;;8.68;70.13;96747.59;5012423;28;20421;-67
2023/01/15 00:50:09;;;;;;;;;;;;;;;8.85;69.92;96730.47;5010673;28;20303;-65
2023/01/15 00:52:37;;;;;;;;;;;;;;;8.78;70.31;96741.81;4995542;28;20264;-65
2023/01/15 00:55:07;;;;;;;;;;;;;;;8.83;70.06;96733.50;4994041;28;19932;-66
2023/01/15 00:57:35;;;;;;;;;;;;;;;8.97;69.37;96738.66;4991323;28;19926;-65
2023/01/15 01:00:04;;;;;;;;;;;;;;;8.88;69.86;96736.00;4990957;28;19987;-68
2023/01/15 01:02:34;;;;;;;;;;;;;;;8.97;69.66;96737.88;4991832;28;19944;-66
2023/01/15 01:05:02;;;;;;;;;;;;;;;8.89;69.88;96740.31;4991005;28;19926;-66
2023/01/15 01:07:31;;;;;;;;;;;;;;;9.04;69.23;96719.19;4993203;28;20264;-67
2023/01/15 01:09:59;;;;;;;;;;;;;;;9.07;69.83;96716.63;4990615;28;19933;-65
2023/01/15 01:12:28;;;;;;;;;;;;;;;9.07;69.23;96729.38;4989288;28;19926;-71
2023/01/15 01:14:59;;;;;;;;;;;;;;;8.98;69.96;96725.91;5005940;28;20439;-65
2023/01/15 01:17:27;;;;;;;;;;;;;;;8.95;70.35;96723.84;4991397;28;19944;-66
2023/01/15 01:19:57;;;;;;;;;;;;;;;9.00;69.84;96726.38;4994740;28;19925;-66
2023/01/15 01:22:50;;;;;;;;;;;;;;;8.97;69.93;96722.41;4993495;28;19948;-74
2023/01/15 01:25:19;;;;;;;;;;;;;;;9.09;70.21;96718.97;4992298;28;19925;-67
2023/01/15 01:27:49;;;;;;;;;;;;;;;9.01;70.62;96719.84;4988825;28;20011;-65
2023/01/15 01:30:18;;;;;;;;;;;;;;;8.95;70.79;96716.53;4995422;28;19930;-65
2023/01/15 01:32:46;;;;;;;;;;;;;;;9.03;70.71;96712.19;4993652;28;19926;-66
2023/01/15 01:35:15;;;;;;;;;;;;;;;8.99;70.87;96698.50;4994912;28;20067;-65
2023/01/15 01:37:43;;;;;;;;;;;;;;;9.15;70.58;96698.69;4991293;28;20305;-65
2023/01/15 01:40:12;;;;;;;;;;;;;;;9.04;70.79;96706.41;4990417;28;19937;-65
2023/01/15 01:42:39;;;;;;;;;;;;;;;9.11;70.72;96705.91;4990966;28;19926;-66
2023/01/15 01:45:17;;;;;;;;;;;;;;;9.26;69.45;96701.78;4990170;28;19933;-65
2023/01/15 01:47:46;;;;;;;;;;;;;;;9.30;69.94;96691.88;4989572;28;19926;-66
2023/01/15 01:50:15;;;;;;;;;;;;;;;9.40;69.43;96681.41;4991934;28;19925;-66
2023/01/15 01:52:45;;;;;;;;;;;;;;;9.34;69.60;96671.91;4991521;28;19936;-65
2023/01/15 01:55:13;;;;;;;;;;;;;;;9.43;69.38;96680.75;4987214;28;19934;-65
2023/01/15 01:57:42;;;;;;;;;;;;;;;9.30;69.75;96667.47;4989421;28;19926;-73
2023/01/15 02:00:14;;;;;;;;;;;;;;;9.40;69.77;96654.31;4985089;28;19925;-66
2023/01/15 02:02:43;;;;;;;;;;;;;;;9.35;70.03;96661.84;5012807;28;20337;-70
2023/01/15 02:05:36;;;;;;;;;;;;;;;9.28;69.96;96656.97;4991691;28;19945;-65
2023/01/15 02:08:06;;;;;;;;;;;;;;;9.31;70.17;96661.72;5013475;28;19948;-65
2023/01/15 02:10:34;;;;;;;;;;;;;;;9.36;69.67;96653.38;4992113;28;20450;-69
2023/01/15 02:13:04;;;;;;;;;;;;;;;9.26;69.70;96642.97;4990107;28;19926;-65
2023/01/15 02:15:33;;;;;;;;;;;;;;;9.38;69.02;96644.94;4990526;28;20330;-66
2023/01/15 02:18:03;;;;;;;;;;;;;;;9.29;69.42;96642.31;5006631;28;19980;-65
2023/01/15 02:20:32;;;;;;;;;;;;;;;9.39;69.13;96635.69;4990411;28;20310;-65
2023/01/15 02:23:20;;;;;;;;;;;;;;;9.35;68.89;96629.34;4987621;28;19933;-67
2023/01/15 02:25:58;;;;;;;;;;;;;;;9.24;69.27;96628.97;4988163;28;19926;-67
2023/01/15 02:28:27;;;;;;;;;;;;;;;9.30;68.97;96633.03;4989513;28;19933;-65
2023/01/15 02:30:57;;;;;;;;;;;;;;;9.25;69.24;96635.16;4990829;28;19932;-65
2023/01/15 02:33:27;;;;;;;;;;;;;;;9.25;68.73;96627.03;5006922;28;19961;-65
2023/01/15 02:35:59;;;;;;;;;;;;;;;9.25;68.79;96630.53;4989696;28;19926;-66
2023/01/15 02:38:33;;;;;;;;;;;;;;;9.32;67.67;96622.69;4996385;28;19940;-65
2023/01/15 02:41:03;;;;;;;;;;;;;;;9.49;66.92;96618.19;5010351;28;19932;-65
2023/01/15 02:43:37;;;;;;;;;;;;;;;9.36;67.10;96615.44;4994077;28;19949;-66
2023/01/15 02:46:05;;;;;;;;;;;;;;;9.43;66.66;96617.63;5000394;28;19926;-65
2023/01/15 02:48:34;;;;;;;;;;;;;;;9.50;66.51;96609.72;4995521;28;19933;-66
2023/01/15 02:51:03;;;;;;;;;;;;;;;9.54;65.65;96612.56;4993619;28;19988;-66
2023/01/15 02:53:31;;;;;;;;;;;;;;;9.57;65.76;96609.16;4994438;28;19926;-65
2023/01/15 02:56:47;;;;;;;;;;;;;;;9.55;65.81;96603.28;5006123;28;20410;-65
2023/01/15 02:59:18;;;;;;;;;;;;;;;9.56;65.48;96599.44;4999156;28;19968;-66
2023/01/15 03:01:48;;;;;;;;;;;;;;;9.53;65.92;96597.41;4997284;28;19925;-66
2023/01/15 03:04:19;;;;;;;;;;;;;;;9.60;64.71;96594.94;4997553;28;19979;-65
2023/01/15 03:06:50;;;;;;;;;;;;;;;9.61;65.10;96599.25;4997111;28;19925;-65
2023/01/15 03:09:19;;;;;;;;;;;;;;;9.58;65.13;96589.84;4998463;28;19933;-71
2023/01/15 03:11:50;;;;;;;;;;;;;;;9.54;65.50;96578.09;4992145;28;19969;-71
2023/01/15 03:14:20;;;;;;;;;;;;;;;9.63;64.33;96580.69;4999047;28;20397;-65
2023/01/15 03:16:49;;;;;;;;;;;;;;;9.66;64.26;96580.81;5014690;28;19953;-66
2023/01/15 03:19:21;;;;;;;;;;;;;;;9.61;64.33;96572.91;5014519;28;20409;-65
2023/01/15 03:21:52;;;;;;;;;;;;;;;9.68;64.27;96577.78;4996285;28;19933;-69
2023/01/15 03:24:25;;;;;;;;;;;;;;;9.63;64.03;96580.69;4993578;28;19933;-66
2023/01/15 03:26:54;;;;;;;;;;;;;;;9.53;64.12;96576.50;4993491;28;19981;-66
2023/01/15 03:29:24;;;;;;;;;;;;;;;9.58;64.73;96578.19;4996672;28;20331;-66
2023/01/15 03:31:53;;;;;;;;;;;;;;;9.63;64.13;96578.00;5012509;28;19926;-65
2023/01/15 03:34:22;;;;;;;;;;;;;;;9.69;64.07;96574.75;4996519;28;19925;-65
2023/01/15 03:36:50;;;;;;;;;;;;;;;9.57;64.29;96577.41;4999129;28;19971;-66
2023/01/15 03:39:18;;;;;;;;;;;;;;;9.66;64.32;96585.47;5001078;28;20357;-65
2023/01/15 03:42:03;;;;;;;;;;;;;;;9.84;62.98;96572.47;5013627;28;19936;-67
2023/01/15 03:44:35;;;;;;;;;;;;;;;9.68;63.94;96572.34;5016714;28;19972;-65
2023/01/15 03:47:08;;;;;;;;;;;;;;;9.68;64.05;96575.06;4998842;28;19926;-66
2023/01/15 03:49:41;;;;;;;;;;;;;;;9.91;62.76;96578.13;4990419;28;19925;-66
2023/01/15 03:52:24;;;;;;;;;;;;;;;9.94;62.59;96575.53;4996817;28;19968;-66
2023/01/15 03:54:56;;;;;;;;;;;;;;;9.95;62.94;96573.59;4996198;28;19936;-66
2023/01/15 03:57:27;;;;;;;;;;;;;;;9.89;63.01;96566.81;5013494;28;19937;-65
2023/01/15 03:59:57;;;;;;;;;;;;;;;9.93;63.78;96567.72;4995947;28;19926;-66
2023/01/15 04:02:25;;;;;;;;;;;;;;;10.03;64.42;96561.06;4995455;28;19930;-66
2023/01/15 04:05:18;;;;;;;;;;;;;;;10.04;64.21;96559.94;5013387;28;19930;-66
2023/01/15 04:07:49;;;;;;;;;;;;;;;9.90;65.17;96552.91;4986606;28;19925;-66
2023/01/15 04:10:18;;;;;;;;;;;;;;;9.89;65.88;96566.81;4995570;28;19991;-65
2023/01/15 04:12:48;;;;;;;;;;;;;;;9.90;66.56;96550.19;5005060;28;19979;-66
2023/01/15 04:15:19;;;;;;;;;;;;;;;9.88;67.49;96552.47;4999084;28;19953;-67
2023/01/15 04:17:51;;;;;;;;;;;;;;;9.93;67.80;96551.44;5012508;28;22507;-75
2023/01/15 04:20:21;;;;;;;;;;;;;;;9.82;68.68;96550.31;4996168;28;19926;-65
2023/01/15 04:22:49;;;;;;;;;;;;;;;9.76;69.05;96547.06;4996688;28;19925;-67
2023/01/15 04:25:18;;;;;;;;;;;;;;;9.84;68.65;96548.84;4993076;28;19926;-67
2023/01/15 04:27:49;;;;;;;;;;;;;;;9.86;68.50;96543.88;5010344;28;19925;-71
2023/01/15 04:30:18;;;;;;;;;;;;;;;9.90;68.70;96535.84;4985676;28;19925;-67
2023/01/15 04:32:50;;;;;;;;;;;;;;;9.85;68.46;96534.16;5000942;28;19972;-66
2023/01/15 04:35:18;;;;;;;;;;;;;;;9.93;68.17;96530.53;4987728;28;19926;-66
2023/01/15 04:37:46;;;;;;;;;;;;;;;9.90;68.43;96530.41;5009069;28;19925;-65
2023/01/15 04:44:05;;;;;;;;;;;;;;;9.86;68.64;96518.69;4994650;28;20023;-67
2023/01/15 04:45:47;;;;;;;;;;;;;;;9.83;69.02;96509.28;5012915;28;20333;-66
2023/01/15 04:48:16;;;;;;;;;;;;;;;9.86;68.70;96499.69;5009994;28;20263;-66
2023/01/15 04:50:44;;;;;;;;;;;;;;;9.90;68.69;96495.16;5012229;28;19925;-66
2023/01/15 04:53:12;;;;;;;;;;;;;;;9.91;68.53;96500.25;5012207;28;19926;-66
2023/01/15 04:55:40;;;;;;;;;;;;;;;9.85;68.80;96501.59;4993858;28;19926;-66
2023/01/15 04:58:10;;;;;;;;;;;;;;;9.94;68.82;96487.91;5001692;28;20001;-66
2023/01/15 05:00:38;;;;;;;;;;;;;;;9.87;69.24;96477.66;5012458;28;19929;-67
2023/01/15 05:03:06;;;;;;;;;;;;;;;9.87;69.37;96472.22;5010559;28;20338;-66
2023/01/15 05:05:35;;;;;;;;;;;;;;;9.87;69.64;96472.22;5012166;28;19965;-66
2023/01/15 05:08:06;;;;;;;;;;;;;;;9.80;69.91;96471.19;5012261;28;20344;-66
2023/01/15 05:10:34;;;;;;;;;;;;;;;9.91;70.08;96467.69;5012170;28;19929;-66
2023/01/15 05:13:02;;;;;;;;;;;;;;;9.85;69.97;96452.78;5012329;28;19949;-66
2023/01/15 05:15:30;;;;;;;;;;;;;;;9.80;70.34;96460.34;4994539;28;20283;-66
2023/01/15 05:17:58;;;;;;;;;;;;;;;9.82;70.03;96442.63;5000305;28;19935;-66
2023/01/15 05:20:26;;;;;;;;;;;;;;;9.73;70.92;96436.53;4994945;28;19933;-67
2023/01/15 05:22:55;;;;;;;;;;;;;;;9.70;70.79;96439.94;5014155;28;19933;-66
2023/01/15 05:25:24;;;;;;;;;;;;;;;9.79;70.14;96445.22;4985793;28;19925;-66
2023/01/15 05:27:52;;;;;;;;;;;;;;;9.94;69.46;96445.31;5012151;28;19963;-70
2023/01/15 05:30:20;;;;;;;;;;;;;;;9.82;69.78;96429.06;5013202;28;19925;-67
2023/01/15 05:32:48;;;;;;;;;;;;;;;9.89;69.65;96442.81;5011145;28;20074;-66
2023/01/15 05:35:17;;;;;;;;;;;;;;;9.97;69.14;96435.69;4994963;28;19967;-69
2023/01/15 05:37:44;;;;;;;;;;;;;;;10.07;68.63;96437.94;5007832;28;19929;-67
2023/01/15 05:40:14;;;;;;;;;;;;;;;10.06;68.70;96438.25;5013386;28;19931;-67
2023/01/15 05:42:41;;;;;;;;;;;;;;;10.04;69.11;96435.91;5012320;28;20017;-68
2023/01/15 05:45:10;;;;;;;;;;;;;;;10.11;69.10;96438.03;5010162;28;19929;-67
2023/01/15 05:47:38;;;;;;;;;;;;;;;10.17;68.41;96437.47;5010843;28;20427;-66
2023/01/15 05:50:06;;;;;;;;;;;;;;;10.10;68.78;96448.09;5006915;28;19936;-67
2023/01/15 05:52:57;;;;;;;;;;;;;;;10.16;68.45;96448.63;5012090;28;19933;-68
2023/01/15 05:55:27;;;;;;;;;;;;;;;10.17;68.42;96437.47;4994229;28;20342;-66
2023/01/15 05:57:56;;;;;;;;;;;;;;;10.28;67.54;96443.22;4989719;28;19929;-66
2023/01/15 06:00:49;;;;;;;;;;;;;;;10.37;67.36;96441.13;5009837;28;19933;-66
2023/01/15 06:03:18;;;;;;;;;;;;;;;10.15;67.85;96436.22;5005732;28;19960;-67
2023/01/15 06:05:50;;;;;;;;;;;;;;;10.17;68.46;96439.34;4993307;28;19926;-66
2023/01/15 06:08:18;;;;;;;;;;;;;;;10.23;68.36;96446.16;5012101;28;20366;-66
2023/01/15 06:13:39;;;;;;;;;;;;;;;10.36;68.21;96438.75;5011674;28;20394;-67
2023/01/15 06:16:10;;;;;;;;;;;;;;;10.27;69.16;96433.47;4992344;28;19929;-68
2023/01/15 06:18:39;;;;;;;;;;;;;;;10.23;69.60;96432.56;4990775;28;19964;-68
2023/01/15 06:21:07;;;;;;;;;;;;;;;10.28;70.39;96437.78;4990014;28;19964;-65
2023/01/15 06:23:38;;;;;;;;;;;;;;;10.25;70.89;96437.69;5010761;28;19929;-68
2023/01/15 06:26:08;;;;;;;;;;;;;;;10.10;71.96;96431.81;5009143;28;19926;-66
2023/01/15 06:28:36;;;;;;;;;;;;;;;10.14;71.76;96434.63;5011480;28;19929;-66
2023/01/15 06:31:05;;;;;;;;;;;;;;;10.10;72.06;96436.44;5006979;28;19940;-66
2023/01/15 06:33:33;;;;;;;;;;;;;;;10.07;72.50;96431.72;4993361;28;20406;-66
2023/01/15 06:36:02;;;;;;;;;;;;;;;10.02;73.47;96461.81;5010333;28;19972;-65
2023/01/15 06:38:56;;;;;;;;;;;;;;;10.00;75.10;96510.97;5009816;28;19932;-66
2023/01/15 06:49:44;;;;;;;;;;;;;;;9.20;79.66;96538.63;4987375;28;19925;-65
2023/01/15 06:52:12;;;;;;;;;;;;;;;9.02;80.91;96548.84;5002545;28;19973;-65
2023/01/15 06:54:41;;;;;;;;;;;;;;;8.90;80.35;96554.22;5010949;28;19926;-66
2023/01/15 06:57:10;;;;;;;;;;;;;;;8.75;80.12;96574.59;5009700;28;19979;-66
2023/01/15 06:59:38;;;;;;;;;;;;;;;8.56;80.88;96550.69;4994829;28;20379;-66
2023/01/15 07:02:30;;;;;;;;;;;;;;;8.51;81.00;96547.38;5001308;28;20050;-66
2023/01/15 07:04:58;;;;;;;;;;;;;;;8.26;81.75;96560.78;5007564;28;19929;-71
2023/01/15 07:07:30;;;;;;;;;;;;;;;8.10;82.26;96557.06;5008346;28;19925;-66
2023/01/15 07:09:58;;;;;;;;;;;;;;;8.07;82.24;96566.59;5002835;28;20388;-66
2023/01/15 07:12:27;;;;;;;;;;;;;;;8.17;82.17;96564.66;5006669;28;20287;-62
2023/01/15 07:14:56;;;;;;;;;;;;;;;8.14;81.65;96576.91;5010019;28;20070;-62
2023/01/15 07:17:24;;;;;;;;;;;;;;;8.01;81.86;96575.25;5007341;28;19996;-62
2023/01/15 07:19:52;;;;;;;;;;;;;;;7.99;82.15;96582.88;5006928;28;19933;-62
2023/01/15 07:22:20;;;;;;;;;;;;;;;8.08;81.67;96589.81;5008755;28;19925;-62
2023/01/15 07:25:16;;;;;;;;;;;;;;;8.04;81.48;96582.69;4995891;28;19948;-63
2023/01/15 07:27:47;;;;;;;;;;;;;;;7.84;81.05;96581.53;5011220;28;20382;-62
2023/01/15 07:30:17;;;;;;;;;;;;;;;7.90;81.48;96584.84;5015264;28;19980;-62
2023/01/15 07:32:46;;;;;;;;;;;;;;;7.94;81.40;96596.59;5010164;28;19932;-62
2023/01/15 07:35:13;;;;;;;;;;;;;;;7.85;81.12;96602.84;4994488;28;19925;-62
2023/01/15 07:37:42;;;;;;;;;;;;;;;7.95;80.56;96606.31;5011205;28;19925;-62
2023/01/15 07:40:11;;;;;;;;;;;;;;;7.74;81.13;96596.22;5011490;28;19929;-62
2023/01/15 07:51:00;;;;;;;;;;;;;;;7.67;82.45;96628.38;5011215;28;19950;-62
2023/01/15 07:53:28;;;;;;;;;;;;;;;7.68;81.55;96643.47;5005824;28;19929;-62
2023/01/15 07:55:56;;;;;;;;;;;;;;;7.63;81.37;96662.56;4991850;28;20025;-62
2023/01/15 07:58:24;;;;;;;;;;;;;;;7.60;81.38;96665.91;5011695;28;20283;-62
2023/01/15 08:00:53;;;;;;;;;;;;;;;7.51;81.36;96673.22;4992167;28;19937;-62
2023/01/15 08:03:21;;;;;;;;;;;;;;;7.47;82.11;96689.31;4993768;28;19936;-62
2023/01/15 08:05:49;;;;;;;;;;;;;;;7.38;82.03;96699.31;5011073;28;19925;-62
2023/01/15 08:08:17;;;;;;;;;;;;;;;7.31;82.07;96702.50;4993126;28;19932;-62
2023/01/15 08:16:58;;;;;;;;;;;;;;;6.92;82.16;96719.66;5006903;28;19933;-63
2023/01/15 08:19:28;;;;;;;;;;;;;;;6.85;81.10;96727.44;5011775;28;19925;-63
2023/01/15 08:21:56;;;;;;;;;;;;;;;6.75;79.60;96733.94;4988963;28;19934;-63
2023/01/15 08:24:27;;;;;;;;;;;;;;;6.55;79.03;96750.72;5009177;28;19972;-62
2023/01/15 08:26:55;;;;;;;;;;;;;;;6.36;78.94;96759.06;5009120;28;19936;-62
2023/01/15 08:29:23;;;;;;;;;;;;;;;6.21;79.24;96765.66;5011291;28;19926;-62
2023/01/15 08:31:51;;;;;;;;;;;;;;;6.13;79.47;96777.22;5010673;28;19987;-62
2023/01/15 08:34:21;;;;;;;;;;;;;;;6.12;79.49;96769.44;5007794;28;20338;-62
2023/01/15 08:36:51;;;;;;;;;;;;;;;6.02;79.67;96781.28;5012466;28;19932;-62
2023/01/15 08:39:19;;;;;;;;;;;;;;;6.10;78.73;96777.84;5009398;28;20306;-62
2023/01/15 08:41:48;;;;;;;;;;;;;;;6.14;78.65;96784.22;5012005;28;19970;-62
2023/01/15 08:44:16;;;;;;;;;;;;;;;6.02;79.26;96781.28;5010152;28;19944;-62
2023/01/15 08:46:45;;;;;;;;;;;;;;;6.15;79.50;96798.47;5011361;28;20402;-62
2023/01/15 08:49:13;;;;;;;;;;;;;;;6.09;78.95;96799.72;5004890;28;19949;-62
2023/01/15 08:51:43;;;;;;;;;;;;;;;5.92;79.01;96803.13;5007179;28;19941;-61
2023/01/15 08:54:12;;;;;;;;;;;;;;;5.88;78.09;96802.09;5010846;28;19925;-61
2023/01/15 08:56:40;;;;;;;;;;;;;;;5.89;78.80;96803.69;5008228;28;19933;-62
2023/01/15 08:59:08;;;;;;;;;;;;;;;5.71;78.42;96816.25;5010562;28;19930;-62
2023/01/15 09:01:36;;;;;;;;;;;;;;;5.72;78.33;96807.88;5014620;28;20013;-63
2023/01/15 09:04:05;;;;;;;;;;;;;;;5.68;78.35;96812.28;5004144;28;19933;-61
2023/01/15 09:06:33;;;;;;;;;;;;;;;5.64;78.18;96813.19;5017129;28;20292;-62
2023/01/15 09:09:03;;;;;;;;;;;;;;;5.70;78.54;96801.19;5006441;28;19933;-62
2023/01/15 09:11:32;;;;;;;;;;;;;;;5.56;78.64;96814.72;5006736;28;19930;-62
2023/01/15 09:13:59;;;;;;;;;;;;;;;5.69;78.53;96816.56;5010028;28;19929;-62
2023/01/15 09:16:30;;;;;;;;;;;;;;;5.76;78.06;96824.22;5011678;28;19925;-62
2023/01/15 09:18:58;;;;;;;;;;;;;;;5.79;78.30;96832.47;4991865;28;20383;-62
2023/01/15 09:21:27;;;;;;;;;;;;;;;5.56;78.26;96830.88;5009421;28;20381;-62
2023/01/15 09:23:55;;;;;;;;;;;;;;;5.55;78.63;96837.38;5009593;28;19926;-61
2023/01/15 09:26:28;;;;;;;;;;;;;;;5.67;78.46;96844.91;5007495;28;20413;-62
2023/01/15 09:28:56;;;;;;;;;;;;;;;5.61;77.87;96849.63;5009995;28;19926;-62
2023/01/15 09:31:24;;;;;;;;;;;;;;;5.69;78.42;96853.47;5009398;28;20034;-64
2023/01/15 09:33:55;;;;;;;;;;;;;;;5.65;78.89;96856.00;5010310;28;20330;-63
2023/01/15 09:36:24;;;;;;;;;;;;;;;5.76;78.35;96854.66;4994287;28;20401;-62
2023/01/15 09:38:52;;;;;;;;;;;;;;;5.75;78.81;96858.47;5002938;28;19925;-62
2023/01/15 09:44:13;;;;;;;;;;;;;;;5.74;78.82;96866.84;5006425;28;20020;-62
2023/01/15 09:46:44;;;;;;;;;;;;;;;5.79;78.83;96870.22;5010719;28;19929;-69
2023/01/15 09:49:14;;;;;;;;;;;;;;;5.84;79.28;96880.06;4989566;28;19933;-63
2023/01/15 09:51:46;;;;;;;;;;;;;;;5.80;79.52;96895.25;5009392;28;20282;-62
2023/01/15 09:54:21;;;;;;;;;;;;;;;5.82;79.44;96878.81;5007902;28;19925;-63
2023/01/15 09:56:51;;;;;;;;;;;;;;;5.83;79.46;96875.00;5007775;28;19937;-62
2023/01/15 09:59:22;;;;;;;;;;;;;;;5.83;78.67;96889.28;5006709;28;19934;-62
2023/01/15 10:01:50;;;;;;;;;;;;;;;5.79;77.42;96885.59;5006891;28;19925;-62
2023/01/15 10:04:25;;;;;;;;;;;;;;;5.82;77.64;96887.69;5005841;28;19936;-62
2023/01/15 10:06:54;;;;;;;;;;;;;;;5.81;77.63;96896.09;5009248;28;19956;-62
2023/01/15 10:09:23;;;;;;;;;;;;;;;5.66;76.86;96902.63;5008561;28;19940;-62
2023/01/15 10:14:43;;;;;;;;;;;;;;;5.63;77.20;96904.00;5008088;28;19926;-62
2023/01/15 10:17:17;;;;;;;;;;;;;;;5.62;77.73;96893.53;4988685;28;19933;-62
2023/01/15 10:19:46;;;;;;;;;;;;;;;5.57;76.81;96904.44;5004124;28;19929;-61
2023/01/15 10:22:15;;;;;;;;;;;;;;;5.54;76.94;96908.53;5009562;28;19926;-62
2023/01/15 10:24:44;;;;;;;;;;;;;;;5.50;77.92;96904.84;5008820;28;19932;-63
2023/01/15 10:27:36;;;;;;;;;;;;;;;5.51;78.41;96912.63;5008133;28;19979;-65
2023/01/15 10:30:32;;;;;;;;;;;;;;;5.38;79.04;96935.00;5006874;28;20272;-62
2023/01/15 10:36:19;;;;;;;;;;;;;;;5.58;78.23;96930.25;5003702;28;20032;-63
2023/01/15 10:38:49;;;;;;;;;;;;;;;5.50;78.37;96926.41;5007686;28;20384;-63
2023/01/15 10:41:24;;;;;;;;;;;;;;;5.46;78.17;96936.19;4991340;28;19940;-62
2023/01/15 10:43:53;;;;;;;;;;;;;;;5.35;78.19;96942.88;5007705;28;19925;-63
2023/01/15 10:46:25;;;;;;;;;;;;;;;5.35;79.59;96940.19;5009195;28;19937;-63
2023/01/15 10:48:54;;;;;;;;;;;;;;;5.39;79.26;96941.97;5008455;28;19957;-62
2023/01/15 10:51:23;;;;;;;;;;;;;;;5.49;79.50;96940.97;5009976;28;19943;-62
2023/01/15 10:54:16;;;;;;;;;;;;;;;5.53;78.52;96937.34;5008015;28;19930;-63
2023/01/15 10:56:45;;;;;;;;;;;;;;;5.45;77.79;96939.97;5008735;28;19964;-62
2023/01/15 10:59:14;;;;;;;;;;;;;;;5.49;77.88;96944.47;5013315;28;19941;-63
2023/01/15 11:01:44;;;;;;;;;;;;;;;5.61;77.82;96937.75;5009194;28;19964;-63
2023/01/15 11:04:13;;;;;;;;;;;;;;;5.68;78.01;96938.91;4993812;28;19933;-63
2023/01/15 11:06:44;;;;;;;;;;;;;;;5.64;76.96;96940.63;4995491;28;19941;-63
2023/01/15 11:09:17;;;;;;;;;;;;;;;5.58;78.51;96944.53;5013453;28;19932;-63
2023/01/15 11:20:31;;;;;;;;;;;;;;;5.53;78.90;96936.56;5000964;28;19973;-62
2023/01/15 11:23:07;;;;;;;;;;;;;;;5.61;78.90;96938.53;5013180;28;19929;-63
2023/01/15 11:25:47;;;;;;;;;;;;;;;5.56;79.04;96951.34;5012021;28;19973;-63
2023/01/15 11:28:16;;;;;;;;;;;;;;;5.64;78.81;96947.91;5007880;28;19925;-63
2023/01/15 11:30:52;;;;;;;;;;;;;;;5.70;78.69;96941.31;4992099;28;19930;-63
2023/01/15 11:33:23;;;;;;;;;;;;;;;5.68;79.37;96957.78;5013107;28;19932;-63
2023/01/15 11:35:56;;;;;;;;;;;;;;;5.73;78.58;96967.66;5012260;28;20116;-63
2023/01/15 11:38:25;;;;;;;;;;;;;;;5.58;78.86;96970.69;5013281;28;19925;-63
2023/01/15 11:40:54;;;;;;;;;;;;;;;5.65;79.58;96966.50;4990357;28;19963;-63
2023/01/15 11:52:10;;;;;;;;;;;;;;;5.70;79.25;96957.47;4954853;28;19937;-63
2023/01/15 11:54:39;;;;;;;;;;;;;;;5.77;79.11;96960.56;4986085;28;19933;-62
2023/01/15 11:57:07;;;;;;;;;;;;;;;5.86;78.91;96955.25;4997825;28;20368;-63
2023/01/15 11:59:35;;;;;;;;;;;;;;;5.87;78.55;96957.66;4994474;28;19933;-63
2023/01/15 12:04:59;;;;;;;;;;;;;;;6.05;77.93;96958.63;4990716;28;20872;-63
2023/01/15 12:07:27;;;;;;;;;;;;;;;6.04;77.99;96973.22;4996834;28;19980;-62
2023/01/15 12:10:01;;;;;;;;;;;;;;;6.11;77.53;96972.78;4990699;28;19925;-63
2023/01/15 12:12:32;;;;;;;;;;;;;;;6.19;76.53;96991.72;4993078;28;19959;-63
2023/01/15 12:15:13;;;;;;;;;;;;;;;6.13;75.45;96997.56;4992520;28;19933;-63
2023/01/15 12:17:47;;;;;;;;;;;;;;;6.10;75.37;96995.47;4993483;28;19937;-63
2023/01/15 12:20:19;;;;;;;;;;;;;;;6.09;74.64;97002.75;5003102;28;19926;-65
2023/01/15 12:22:50;;;;;;;;;;;;;;;5.97;74.64;97005.19;4993498;28;19933;-63
2023/01/15 12:25:20;;;;;;;;;;;;;;;5.86;76.12;97003.75;4991214;28;19925;-63
2023/01/15 12:27:52;;;;;;;;;;;;;;;5.89;76.01;97013.94;4987731;28;19937;-63
2023/01/15 12:30:22;;;;;;;;;;;;;;;5.85;76.12;97008.34;4991378;28;19933;-63
2023/01/15 12:32:52;;;;;;;;;;;;;;;5.92;76.07;97006.09;4991406;28;20020;-63
2023/01/15 12:35:25;;;;;;;;;;;;;;;5.86;76.35;97011.84;4991923;28;19934;-63
2023/01/15 12:37:53;;;;;;;;;;;;;;;5.86;75.82;97011.84;5003417;28;19934;-62
2023/01/15 12:40:22;;;;;;;;;;;;;;;5.79;75.97;97015.75;4992177;28;19926;-63
2023/01/15 12:46:10;;;;;;;;;;;;;;;5.77;74.72;97014.47;4960017;28;19940;-63
2023/01/15 12:48:40;;;;;;;;;;;;;;;5.77;74.35;97023.34;4991452;28;19980;-63
2023/01/15 12:51:12;;;;;;;;;;;;;;;5.73;74.69;97019.66;4988148;28;20348;-63
2023/01/15 12:53:42;;;;;;;;;;;;;;;5.73;75.33;97021.56;4990431;28;20032;-63
2023/01/15 12:56:14;;;;;;;;;;;;;;;5.73;75.34;97022.34;4989969;28;19941;-63
2023/01/15 13:01:37;;;;;;;;;;;;;;;5.77;74.25;97041.44;5009526;28;19940;-63
2023/01/15 13:04:08;;;;;;;;;;;;;;;5.73;74.23;97043.91;5010854;28;19959;-63
2023/01/15 13:06:39;;;;;;;;;;;;;;;5.71;74.11;97048.03;5011462;28;20375;-63
2023/01/15 13:09:09;;;;;;;;;;;;;;;5.62;74.82;97058.69;4991853;28;19952;-63
2023/01/15 13:11:36;;;;;;;;;;;;;;;5.62;74.68;97058.69;5006551;28;20301;-63
2023/01/15 13:14:09;;;;;;;;;;;;;;;5.58;75.44;97055.00;4989998;28;19925;-62
2023/01/15 13:16:41;;;;;;;;;;;;;;;5.66;73.91;97070.47;5009902;28;20378;-62
2023/01/15 13:19:13;;;;;;;;;;;;;;;5.57;74.70;97083.03;5008763;28;19925;-62
2023/01/15 13:21:43;;;;;;;;;;;;;;;5.52;73.40;97091.22;5009886;28;19930;-61
2023/01/15 13:24:40;;;;;;;;;;;;;;;5.41;74.69;97106.78;4999168;28;19948;-62
2023/01/15 13:27:15;;;;;;;;;;;;;;;5.20;74.63;97114.41;5009610;28;19926;-63
2023/01/15 13:29:50;;;;;;;;;;;;;;;4.89;74.63;97127.56;5009362;28;19973;-63
2023/01/15 13:32:19;;;;;;;;;;;;;;;4.65;74.90;97132.28;5008704;28;19926;-63
2023/01/15 13:34:48;;;;;;;;;;;;;;;4.47;75.64;97134.69;5007620;28;19965;-64
2023/01/15 13:37:20;;;;;;;;;;;;;;;4.58;75.11;97132.63;5011371;28;19929;-65
2023/01/15 13:39:49;;;;;;;;;;;;;;;4.46;75.25;97130.38;5005257;28;20385;-64
2023/01/15 13:42:34;;;;;;;;;;;;;;;4.42;75.72;97134.75;4995515;28;19956;-64
2023/01/15 13:45:03;;;;;;;;;;;;;;;4.43;75.56;97130.16;4993653;28;20394;-64
2023/01/15 13:47:33;;;;;;;;;;;;;;;4.33;76.54;97141.84;5013459;28;19925;-63
2023/01/15 13:50:02;;;;;;;;;;;;;;;4.34;76.56;97140.75;4993488;28;20259;-63
2023/01/15 13:52:32;;;;;;;;;;;;;;;4.39;77.80;97134.53;4997392;28;19933;-63
2023/01/15 13:55:01;;;;;;;;;;;;;;;4.41;77.83;97151.16;5009985;28;20012;-63
2023/01/15 13:57:34;;;;;;;;;;;;;;;4.51;77.19;97148.31;5010228;28;20310;-63
2023/01/15 14:00:03;;;;;;;;;;;;;;;4.58;77.40;97150.66;4975270;28;19932;-63
2023/01/15 14:02:39;;;;;;;;;;;;;;;4.54;77.96;97147.75;5010120;28;19933;-63
2023/01/15 14:05:25;;;;;;;;;;;;;;;4.59;76.56;97161.13;5007618;28;20020;-62
2023/01/15 14:08:00;;;;;;;;;;;;;;;4.58;77.05;97167.63;5008824;28;19925;-64
2023/01/15 14:10:35;;;;;;;;;;;;;;;4.63;76.85;97151.38;5009150;28;19925;-63
2023/01/15 14:13:17;;;;;;;;;;;;;;;4.62;77.39;97160.53;5006724;28;19929;-63
2023/01/15 14:15:47;;;;;;;;;;;;;;;4.65;76.99;97169.94;5009515;28;19933;-64
2023/01/15 14:18:34;;;;;;;;;;;;;;;4.62;76.61;97174.00;5008100;28;19932;-63
2023/01/15 14:21:08;;;;;;;;;;;;;;;4.60;77.61;97184.25;5006952;28;19964;-62